Date,TemperatureHighF,TemperatureAvgF,TemperatureLowF,DewpointHighF,DewpointAvgF,DewpointLowF,HumidityHigh,HumidityAvg,HumidityLow,PressureMaxIn,PressureMinIn,WindSpeedMaxMPH,WindSpeedAvgMPH,GustSpeedMaxMPH,PrecipitationSumIn
2013-1-2,32.0,27.1,24.0,21.0,17.5,15.0,73,67,57,30.23,30.08,6,2,11,0.02
2013-1-3,37.0,27.7,20.0,25.0,19.5,13.0,83,71,56,30.40,30.21,9,2,13,0.01
2013-1-4,40.0,28.7,17.0,24.0,19.4,12.0,83,69,51,30.37,30.20,14,4,17,0.00
2013-1-5,42.0,35.0,28.0,31.0,25.3,20.0,74,67,60,30.21,30.01,18,5,22,0.00
2013-1-6,37.0,29.2,21.0,21.0,17.3,14.0,76,61,48,30.36,30.12,15,4,22,0.00
2013-1-7,48.0,37.3,27.0,25.0,20.8,16.0,65,52,35,30.25,30.03,13,5,22,0.00
2013-1-8,52.0,42.8,35.0,30.0,27.9,25.0,70,56,41,30.16,29.95,14,6,26,0.00
2013-1-9,56.0,41.3,29.0,35.0,26.6,23.0,79,59,29,30.42,30.16,10,2,11,0.00
2013-1-10,46.0,40.4,36.0,43.0,32.9,21.0,93,76,43,30.35,29.73,17,6,19,0.21
2013-1-11,59.0,52.9,46.0,48.0,45.1,27.0,94,76,58,29.77,29.57,18,7,21,0.01
2013-1-12,54.0,29.0,21.0,32.0,15.3,8.0,77,57,33,30.11,29.71,13,5,21,0.00
2013-1-13,25.0,18.4,12.0,9.0,5.1,2.0,65,56,44,30.33,30.06,14,4,17,0.00
2013-1-14,29.0,20.1,11.0,12.0,6.0,2.0,68,55,36,30.49,30.33,8,2,10,0.00
2013-1-15,33.0,23.2,16.0,13.0,8.1,5.0,72,54,33,30.39,30.14,8,2,8,0.00
2013-1-16,45.0,32.3,19.0,27.0,17.8,7.0,68,55,41,30.17,29.99,17,4,17,0.00
2013-1-17,45.0,35.9,27.0,28.0,23.4,20.0,84,62,39,30.48,30.17,7,3,12,0.00
2013-1-18,56.0,44.3,31.0,29.0,26.5,22.0,71,51,33,30.37,29.99,23,8,35,0.00
2013-1-19,60.0,47.0,38.0,31.0,27.1,24.0,66,47,26,30.24,29.94,18,7,21,0.00
2013-1-20,40.0,25.3,17.0,26.0,7.4,3.0,66,47,33,30.38,30.21,14,6,14,0.00
2013-1-21,19.0,15.3,12.0,9.0,0.8,-8.0,73,54,31,30.42,30.34,13,3,15,0.00
2013-1-22,26.0,18.2,11.0,4.0,0.1,-4.0,54,45,33,30.40,30.25,9,4,11,0.00
2013-1-23,45.0,27.7,15.0,19.0,11.1,3.0,65,51,34,30.42,30.16,12,4,16,0.00
2013-1-24,24.0,17.1,7.0,6.0,0.2,-6.0,59,48,37,30.50,30.16,17,8,19,0.00
2013-1-25,47.0,32.9,18.0,19.0,12.5,5.0,58,43,30,30.24,30.12,7,2,9,0.00
2013-1-26,44.0,34.2,25.0,23.0,20.1,16.0,75,57,43,30.30,30.09,11,5,13,0.00
2013-1-27,58.0,46.2,35.0,52.0,40.5,21.0,91,81,53,30.11,29.73,14,7,25,0.11
2013-1-28,73.0,59.6,46.0,58.0,51.0,43.0,91,75,46,29.90,29.66,18,6,24,0.01
2013-1-29,68.0,46.7,33.0,59.0,41.9,30.0,90,84,69,29.70,29.47,18,8,25,0.34
2013-1-30,34.0,25.8,18.0,31.0,19.0,9.0,89,75,63,29.96,29.51,25,8,30,0.11
2013-1-31,20.0,12.8,4.0,10.0,0.0,-6.0,70,56,49,30.45,29.95,20,6,23,0.01
2013-2-1,26.0,15.4,1.0,13.0,2.4,-7.0,68,56,42,30.44,30.11,11,4,12,0.01
2013-2-2,42.0,32.3,24.0,32.0,22.3,11.0,76,66,58,30.22,30.06,9,3,16,0.04
2013-2-3,44.0,38.0,30.0,29.0,20.4,14.0,74,51,32,30.27,29.86,17,5,22,0.01
2013-2-4,41.0,32.3,23.0,28.0,22.4,17.0,80,67,57,30.00,29.74,17,3,22,0.00
2013-2-5,55.0,36.8,22.0,34.0,24.1,16.0,83,63,33,30.11,29.89,16,3,17,0.00
2013-2-6,59.0,45.7,31.0,38.0,30.2,23.0,77,57,36,30.12,29.89,14,5,16,0.00
2013-2-7,50.0,42.2,32.0,42.0,35.1,25.0,89,76,57,30.21,29.87,15,5,19,0.07
2013-2-8,40.0,32.0,28.0,27.0,24.5,23.0,80,74,59,30.34,30.21,15,5,16,0.01
2013-2-9,45.0,35.9,28.0,33.0,28.2,23.0,85,74,53,30.23,29.77,14,8,20,0.01
2013-2-10,54.0,43.5,35.0,45.0,32.4,20.0,91,67,44,29.86,29.43,29,11,38,0.07
2013-2-11,46.0,37.5,30.0,25.0,21.6,18.0,70,53,38,30.15,29.86,17,4,24,0.01
2013-2-12,43.0,32.6,23.0,28.0,21.3,17.0,84,64,43,30.17,29.94,5,1,7,0.00
2013-2-13,55.0,39.6,24.0,27.0,21.7,18.0,76,51,28,29.94,29.79,7,2,15,0.00
2013-2-14,51.0,42.2,34.0,29.0,24.5,20.0,66,50,37,30.16,29.80,14,4,21,0.00
2013-2-15,36.0,29.4,19.0,27.0,12.7,5.0,77,50,29,30.37,30.15,13,4,19,0.00
2013-2-16,36.0,27.9,16.0,20.0,14.9,9.0,76,59,43,30.32,30.05,10,2,14,0.00
2013-2-17,56.0,41.8,28.0,30.0,24.0,18.0,69,50,34,30.06,29.67,11,6,14,0.00
2013-2-18,56.0,42.4,26.0,43.0,27.3,12.0,77,56,39,30.05,29.54,23,9,43,0.00
2013-2-19,32.0,23.9,17.0,14.0,4.7,-2.0,70,45,25,30.34,30.03,24,5,24,0.00
2013-2-20,24.0,17.9,11.0,9.0,3.1,-3.0,60,52,43,30.39,30.18,13,6,17,0.00
2013-2-21,24.0,21.8,19.0,20.0,15.2,8.0,86,76,58,30.20,29.76,21,10,32,0.00
2013-2-22,29.0,22.8,15.0,19.0,15.2,7.0,86,73,60,30.06,29.77,9,2,10,0.11
2013-2-23,35.0,22.5,8.0,17.0,11.7,3.0,80,64,47,30.05,29.93,8,1,12,0.02
2013-2-24,43.0,31.7,17.0,22.0,18.6,12.0,82,60,39,30.04,29.93,11,4,14,0.00
2013-2-25,37.0,33.0,28.0,30.0,23.8,20.0,85,69,60,29.99,29.75,19,9,25,0.01
2013-2-26,32.0,31.3,30.0,30.0,29.1,27.0,92,91,86,29.85,29.60,24,9,31,0.08
2013-2-27,33.0,30.3,27.0,28.0,25.4,22.0,91,82,66,30.03,29.81,17,6,27,0.13
2013-2-28,34.0,29.9,27.0,24.0,22.2,20.0,78,73,61,30.20,30.02,21,5,22,0.01
2013-3-1,33.0,28.2,25.0,23.0,19.9,18.0,77,71,58,30.32,30.15,12,4,16,0.02
2013-3-2,34.0,27.2,22.0,18.0,15.0,12.0,74,60,47,30.34,30.16,9,2,12,0.01
2013-3-3,40.0,32.4,24.0,24.0,20.2,16.0,73,61,49,30.17,29.77,19,6,19,0.00
2013-3-4,47.0,38.2,33.0,30.0,26.2,23.0,85,62,47,29.97,29.69,13,6,15,0.02
2013-3-5,34.0,31.4,27.0,31.0,19.7,15.0,88,62,49,30.32,29.93,24,9,31,0.02
2013-3-6,36.0,29.0,21.0,20.0,16.7,12.0,70,60,49,30.43,30.28,14,3,22,0.01
2013-3-7,42.0,33.1,23.0,26.0,21.2,16.0,76,62,47,30.31,30.14,12,6,15,0.00
2013-3-8,48.0,40.9,33.0,35.0,29.5,24.0,74,64,53,30.22,29.99,15,7,18,0.05
2013-3-9,50.0,45.1,41.0,48.0,41.2,34.0,93,86,74,30.00,29.61,10,5,15,0.17
2013-3-10,51.0,38.9,28.0,49.0,36.3,24.0,94,91,81,29.88,29.57,26,6,26,0.10
2013-3-11,33.0,28.4,25.0,24.0,20.7,19.0,84,73,59,30.00,29.83,15,4,19,0.01
2013-3-12,44.0,33.3,26.0,28.0,21.2,17.0,75,62,43,30.32,29.99,17,4,23,0.00
2013-3-13,43.0,33.1,22.0,22.0,18.4,16.0,76,56,38,30.47,30.30,7,2,9,0.00
2013-3-14,70.0,51.0,33.0,40.0,29.8,21.0,62,46,28,30.30,30.05,13,3,17,0.00
2013-3-15,83.0,59.8,38.0,45.0,38.1,32.0,81,50,19,30.10,29.66,13,2,17,0.00
2013-3-16,55.0,40.4,35.0,42.0,30.9,24.0,83,69,56,30.09,29.73,23,9,27,0.00
2013-3-17,37.0,32.9,29.0,31.0,25.9,22.0,87,75,64,30.08,29.78,18,10,20,0.14
2013-3-18,51.0,40.1,31.0,38.0,26.4,14.0,90,62,30,30.08,29.74,21,5,28,0.03
2013-3-19,44.0,35.8,31.0,31.0,18.9,12.0,86,52,28,30.24,30.05,10,2,17,0.03
2013-3-20,36.0,30.4,21.0,30.0,11.0,3.0,88,47,27,30.40,30.12,14,4,24,0.03
2013-3-21,30.0,26.0,23.0,20.0,12.7,4.0,75,57,40,30.12,29.92,12,5,15,0.00
2013-3-22,34.0,31.6,29.0,27.0,22.3,19.0,77,68,61,30.03,29.93,9,5,13,0.01
2013-3-23,41.0,34.1,31.0,30.0,24.8,19.0,89,70,46,30.05,29.90,17,8,21,0.05
2013-3-24,32.0,28.6,24.0,28.0,23.2,16.0,89,80,68,30.06,29.84,15,3,31,0.11
2013-3-25,35.0,28.6,23.0,25.0,20.4,16.0,83,71,60,30.32,30.01,21,7,23,0.09
2013-3-26,39.0,29.9,20.0,23.0,19.1,15.0,80,64,49,30.40,30.27,7,2,9,0.01
2013-3-27,48.0,36.0,26.0,31.0,24.3,17.0,75,63,43,30.31,30.19,10,4,16,0.01
2013-3-28,60.0,47.9,34.0,39.0,33.0,27.0,77,58,38,30.25,30.13,9,5,11,0.01
2013-3-29,66.0,53.2,37.0,39.0,33.3,28.0,80,51,25,30.22,30.09,12,5,16,0.00
2013-3-30,62.0,53.0,48.0,52.0,42.8,-99.9,89,72,49,30.10,29.87,11,4,15,0.05
2013-3-31,64.0,54.6,45.0,47.0,37.3,22.0,92,57,27,30.01,29.92,15,4,27,0.02
2013-4-1,47.0,38.2,30.0,31.0,19.3,11.0,77,49,27,30.29,30.01,18,7,25,0.00
2013-4-2,49.0,38.3,26.0,22.0,16.9,14.0,64,43,28,30.35,30.24,9,3,15,0.00
2013-4-3,51.0,41.6,31.0,23.0,20.7,17.0,65,45,31,30.36,30.23,12,5,16,0.00
2013-4-4,62.0,49.8,36.0,28.0,23.0,17.0,52,36,24,30.25,30.05,7,2,10,0.00
2013-4-5,69.0,55.1,40.0,39.0,33.6,24.0,70,45,30,30.18,29.86,13,6,18,0.00
2013-4-6,74.0,62.9,56.0,48.0,40.4,35.0,54,44,28,29.87,29.65,23,8,30,0.00
2013-4-7,75.0,60.4,46.0,52.0,42.9,37.0,84,55,30,29.90,29.67,14,4,17,0.51
2013-4-8,73.0,62.8,51.0,61.0,55.7,48.0,91,79,66,29.77,29.68,14,4,16,0.66
2013-4-9,75.0,67.4,55.0,62.0,58.0,51.0,85,72,59,29.80,29.67,14,7,21,0.18
2013-4-10,53.0,43.0,39.0,49.0,40.0,35.0,90,89,86,29.93,29.72,15,5,26,0.87
2013-4-11,38.0,35.8,33.0,35.0,28.6,26.0,90,75,63,29.79,29.71,8,3,13,0.10
2013-4-12,50.0,39.3,33.0,34.0,28.3,25.0,77,65,51,30.02,29.75,10,4,16,0.00
2013-4-13,58.0,46.2,31.0,39.0,32.5,25.0,80,60,45,30.07,29.72,15,4,17,0.00
2013-4-14,73.0,61.2,48.0,52.0,44.8,34.0,81,56,42,29.74,29.49,24,8,31,0.05
2013-4-15,53.0,47.7,43.0,36.0,31.4,27.0,62,53,43,30.02,29.72,15,4,16,0.05
2013-4-16,47.0,42.8,39.0,34.0,30.3,28.0,70,61,52,30.17,30.01,18,10,22,0.00
2013-4-17,49.0,46.5,45.0,46.0,41.7,33.0,92,84,63,30.09,29.66,17,7,20,0.23
2013-4-18,45.0,39.1,35.0,42.0,33.8,26.0,91,82,66,29.91,29.57,23,7,23,0.20
2013-4-19,51.0,41.4,31.0,33.0,24.0,21.0,78,52,33,30.10,29.75,15,5,20,0.01
2013-4-20,53.0,43.5,29.0,28.0,23.1,19.0,66,45,29,30.26,30.09,13,5,16,0.00
2013-4-21,67.0,56.5,44.0,40.0,35.2,28.0,62,46,33,30.22,30.10,17,7,23,0.00
2013-4-22,66.0,56.3,46.0,48.0,40.9,36.0,87,58,39,30.14,29.93,11,5,16,0.04
2013-4-23,45.0,36.2,32.0,41.0,31.2,28.0,87,82,71,30.16,30.03,18,7,29,0.29
2013-4-24,53.0,42.6,28.0,31.0,26.7,22.0,79,55,35,30.26,30.14,12,4,15,0.11
2013-4-25,67.0,54.4,37.0,38.0,33.0,29.0,74,47,27,30.30,30.14,11,3,16,0.00
2013-4-26,57.0,52.6,48.0,48.0,43.7,38.0,87,72,48,30.23,30.14,15,6,16,0.09
2013-4-27,55.0,50.2,47.0,47.0,45.6,43.0,91,84,73,30.22,30.01,9,4,12,0.33
2013-4-28,73.0,58.4,39.0,54.0,47.1,36.0,92,69,40,30.02,29.80,12,4,15,0.02
2013-4-29,83.0,70.3,55.0,63.0,56.0,49.0,81,62,45,29.83,29.64,17,6,18,0.00
2013-4-30,83.0,75.4,68.0,55.0,50.7,47.0,58,43,29,29.84,29.66,21,9,29,0.00
2013-5-1,74.0,62.7,40.0,57.0,47.5,35.0,81,58,50,30.21,29.83,24,7,29,0.02
2013-5-2,41.0,36.6,33.0,37.0,33.0,30.0,89,86,82,30.40,30.19,21,8,30,0.74
2013-5-3,40.0,36.4,33.0,34.0,31.4,29.0,89,82,74,30.30,29.92,15,6,23,0.10
2013-5-4,53.0,42.3,34.0,46.0,37.8,30.0,91,84,70,30.04,29.83,15,5,16,0.07
2013-5-5,58.0,50.2,45.0,50.0,45.7,42.0,91,85,73,30.13,30.02,11,4,16,0.01
2013-5-6,67.0,56.5,50.0,55.0,50.0,47.0,90,79,62,30.14,30.03,10,3,13,0.01
2013-5-7,76.0,63.8,47.0,57.0,49.2,44.0,91,63,34,30.10,29.98,5,1,9,0.00
2013-5-8,74.0,64.5,55.0,58.0,53.0,46.0,84,67,52,30.03,29.91,11,4,15,0.05
2013-5-9,74.0,64.7,58.0,63.0,57.3,52.0,92,78,60,29.96,29.85,7,3,20,0.85
2013-5-10,67.0,57.6,53.0,54.0,47.8,-99.9,89,75,51,30.07,29.92,14,4,15,0.00
2013-5-11,65.0,55.8,45.0,47.0,33.4,-99.9,83,49,25,30.25,30.03,21,6,30,0.00
2013-5-12,65.0,54.0,37.0,39.0,28.8,25.0,65,40,25,30.29,30.12,8,2,11,0.00
2013-5-13,77.0,63.9,47.0,53.0,44.4,37.0,77,51,33,30.18,29.93,13,4,15,0.00
2013-5-14,91.0,77.5,63.0,54.0,50.3,42.0,67,42,22,29.94,29.78,19,7,31,0.00
2013-5-15,87.0,76.1,66.0,64.0,57.1,47.0,75,53,38,29.93,29.81,9,5,17,0.00
2013-5-16,82.0,66.7,62.0,63.0,39.3,-99.9,86,66,46,29.93,29.81,10,3,13,0.00
2013-5-17,76.0,67.2,59.0,62.0,54.3,-99.9,90,73,56,29.96,29.87,8,2,10,0.00
2013-5-18,84.0,73.8,61.0,67.0,62.2,57.0,86,68,51,29.96,29.76,14,5,16,0.00
2013-5-19,82.0,72.2,62.0,69.0,62.5,57.0,88,73,55,29.88,29.57,19,7,27,0.17
2013-6-19,83.0,79.2,74.0,68.0,66.0,64.0,72,64,57,30.02,29.96,8,4,9,0.00
2013-6-20,88.0,77.3,68.0,71.0,66.6,64.0,87,71,55,30.04,29.95,16,6,18,0.00
2013-6-22,93.0,88.2,80.0,71.0,67.4,62.0,66,51,43,30.02,29.84,19,7,19,0.00
2013-6-23,82.0,78.1,73.0,73.0,68.6,64.0,80,73,66,30.02,29.81,13,6,21,0.00
2013-6-24,75.0,73.3,72.0,69.0,68.1,68.0,86,84,80,29.96,29.92,6,3,8,0.00
2013-8-22,90.0,83.9,77.0,-99.9,-99.9,-99.9,0,0,100,0.00,40.00,6,2,7,0.00
2013-8-23,75.0,74.1,74.0,-99.9,-99.9,-99.9,0,0,100,0.00,40.00,1,1,2,0.00
2013-9-8,98.0,85.0,74.0,74.0,68.3,65.0,76,59,37,29.91,29.91,5,2,9,0.00
2013-9-9,96.0,84.5,74.0,65.0,62.0,57.0,69,49,30,29.91,29.91,11,4,24,0.00
2013-9-10,95.0,83.6,72.0,65.0,62.0,60.0,69,50,33,29.91,29.91,10,4,21,0.00
2013-9-11,95.0,80.9,68.0,69.0,63.9,60.0,76,58,38,29.91,29.91,9,3,17,0.00
2013-9-12,84.0,75.4,65.0,70.0,61.0,46.0,92,64,38,29.91,29.91,8,4,15,0.02
2013-9-13,75.0,65.9,55.0,51.0,46.4,43.0,73,51,33,29.91,29.91,9,4,14,0.01
2013-9-14,79.0,68.4,54.0,51.0,47.3,44.0,69,48,33,29.91,29.91,7,4,13,0.00
2013-9-15,77.0,68.0,62.0,67.0,56.6,51.0,88,68,53,29.91,29.91,11,5,20,0.07
2013-9-16,63.0,60.0,58.0,58.0,56.0,54.0,91,87,79,29.91,29.91,11,6,20,0.09
2013-9-17,74.0,65.4,60.0,66.0,61.5,57.0,93,87,75,29.91,29.91,7,5,13,0.03
2013-9-18,79.0,67.9,67.0,67.0,65.5,65.0,93,91,70,29.91,29.91,7,3,15,0.02
2013-9-19,92.0,80.5,66.0,69.0,66.0,62.0,92,64,42,29.91,29.91,13,6,23,0.02
2013-9-20,69.0,63.1,55.0,64.0,52.4,48.0,92,70,50,29.91,29.91,6,3,16,0.01
2013-9-21,72.0,60.8,48.0,51.0,44.8,-99.9,85,61,40,29.91,29.91,3,0,6,0.01
2013-9-22,77.0,65.4,54.0,53.0,49.9,48.0,82,59,42,29.91,29.91,8,4,14,0.00
2013-9-23,75.0,65.6,55.0,54.0,51.2,49.0,83,61,41,29.91,29.91,11,6,20,0.01
2013-9-24,74.0,66.1,61.0,58.0,56.3,53.0,84,71,58,29.91,29.91,12,3,12,0.01
2013-9-28,73.0,64.4,55.0,64.0,54.4,-99.9,89,74,62,29.91,29.91,10,4,24,0.00
2013-9-29,74.0,60.7,47.0,50.0,47.5,43.0,88,65,38,29.91,29.91,5,2,9,0.00
2013-9-30,78.0,65.6,52.0,59.0,53.4,47.0,88,67,44,29.91,29.91,7,3,16,0.00
2013-10-1,75.0,69.4,66.0,64.0,62.8,62.0,87,80,67,29.91,29.91,2,1,3,0.00
2013-10-2,81.0,71.3,64.0,69.0,64.5,61.0,89,80,59,29.91,29.91,6,2,10,0.00
2013-10-3,70.0,69.9,69.0,66.0,65.9,65.0,88,88,87,29.91,29.91,2,2,5,0.00